sensor_id;sensor_type;location;lat;lon;timestamp;P1;durP1;ratioP1;P2;durP2;ratioP2
4533;SDS011;2279;51.448;7.306;2022-11-14T00:02:22;18.77;;;12.45;;
4533;SDS011;2279;51.448;7.306;2022-11-14T00:04:48;16.20;;;11.30;;
4533;SDS011;2279;51.448;7.306;2022-11-14T00:07:14;13.73;;;10.77;;
4533;SDS011;2279;51.448;7.306;2022-11-14T00:09:40;17.63;;;12.00;;
4533;SDS011;2279;51.448;7.306;2022-11-14T00:12:10;13.60;;;11.65;;
4533;SDS011;2279;51.448;7.306;2022-11-14T00:14:36;17.67;;;11.00;;
4533;SDS011;2279;51.448;7.306;2022-11-14T00:17:03;16.73;;;10.73;;
4533;SDS011;2279;51.448;7.306;2022-11-14T00:19:29;17.52;;;11.35;;
4533;SDS011;2279;51.448;7.306;2022-11-14T00:21:55;14.82;;;11.48;;
4533;SDS011;2279;51.448;7.306;2022-11-14T00:24:21;13.23;;;10.30;;
4533;SDS011;2279;51.448;7.306;2022-11-14T00:26:47;14.32;;;9.90;;
4533;SDS011;2279;51.448;7.306;2022-11-14T00:29:14;11.93;;;10.23;;
4533;SDS011;2279;51.448;7.306;2022-11-14T00:31:40;15.90;;;10.93;;
4533;SDS011;2279;51.448;7.306;2022-11-14T00:34:06;12.10;;;9.40;;
4533;SDS011;2279;51.448;7.306;2022-11-14T00:36:32;17.13;;;11.00;;
4533;SDS011;2279;51.448;7.306;2022-11-14T00:38:58;12.63;;;9.90;;
4533;SDS011;2279;51.448;7.306;2022-11-14T00:41:25;13.32;;;10.57;;
4533;SDS011;2279;51.448;7.306;2022-11-14T00:43:51;14.70;;;10.25;;
4533;SDS011;2279;51.448;7.306;2022-11-14T00:46:17;11.43;;;10.17;;
4533;SDS011;2279;51.448;7.306;2022-11-14T00:48:43;12.90;;;10.35;;
4533;SDS011;2279;51.448;7.306;2022-11-14T00:51:09;12.35;;;9.82;;
4533;SDS011;2279;51.448;7.306;2022-11-14T00:53:35;12.77;;;11.00;;
4533;SDS011;2279;51.448;7.306;2022-11-14T00:56:01;14.52;;;9.70;;
4533;SDS011;2279;51.448;7.306;2022-11-14T00:58:27;13.43;;;10.45;;
4533;SDS011;2279;51.448;7.306;2022-11-14T01:00:53;13.70;;;10.10;;
4533;SDS011;2279;51.448;7.306;2022-11-14T01:03:19;15.02;;;11.15;;
4533;SDS011;2279;51.448;7.306;2022-11-14T01:05:47;11.60;;;10.27;;
4533;SDS011;2279;51.448;7.306;2022-11-14T01:08:14;13.95;;;11.38;;
4533;SDS011;2279;51.448;7.306;2022-11-14T01:10:41;15.70;;;10.65;;
4533;SDS011;2279;51.448;7.306;2022-11-14T01:13:08;13.27;;;10.65;;
4533;SDS011;2279;51.448;7.306;2022-11-14T01:15:37;19.13;;;13.73;;
4533;SDS011;2279;51.448;7.306;2022-11-14T01:18:03;13.10;;;10.75;;
4533;SDS011;2279;51.448;7.306;2022-11-14T01:20:29;14.33;;;11.43;;
4533;SDS011;2279;51.448;7.306;2022-11-14T01:22:55;14.18;;;11.15;;
4533;SDS011;2279;51.448;7.306;2022-11-14T01:25:21;15.40;;;11.87;;
4533;SDS011;2279;51.448;7.306;2022-11-14T01:27:47;14.77;;;11.52;;
4533;SDS011;2279;51.448;7.306;2022-11-14T01:30:13;19.08;;;11.90;;
4533;SDS011;2279;51.448;7.306;2022-11-14T01:32:39;17.85;;;12.82;;
4533;SDS011;2279;51.448;7.306;2022-11-14T01:35:05;17.83;;;12.50;;
4533;SDS011;2279;51.448;7.306;2022-11-14T01:37:31;15.10;;;12.68;;
4533;SDS011;2279;51.448;7.306;2022-11-14T01:39:57;14.63;;;12.20;;
4533;SDS011;2279;51.448;7.306;2022-11-14T01:42:23;16.40;;;13.23;;
4533;SDS011;2279;51.448;7.306;2022-11-14T01:44:50;15.60;;;12.25;;
4533;SDS011;2279;51.448;7.306;2022-11-14T01:47:34;20.55;;;14.02;;
4533;SDS011;2279;51.448;7.306;2022-11-14T01:50:01;18.02;;;13.77;;
4533;SDS011;2279;51.448;7.306;2022-11-14T01:52:36;14.40;;;12.90;;
4533;SDS011;2279;51.448;7.306;2022-11-14T01:55:04;16.67;;;12.38;;
4533;SDS011;2279;51.448;7.306;2022-11-14T01:57:35;19.25;;;14.02;;
4533;SDS011;2279;51.448;7.306;2022-11-14T02:00:05;17.85;;;13.35;;
4533;SDS011;2279;51.448;7.306;2022-11-14T02:02:31;19.55;;;13.00;;
4533;SDS011;2279;51.448;7.306;2022-11-14T02:04:59;14.85;;;12.52;;
4533;SDS011;2279;51.448;7.306;2022-11-14T02:07:28;19.85;;;13.20;;
4533;SDS011;2279;51.448;7.306;2022-11-14T02:09:55;16.33;;;13.05;;
4533;SDS011;2279;51.448;7.306;2022-11-14T02:12:22;18.58;;;15.02;;
4533;SDS011;2279;51.448;7.306;2022-11-14T02:14:49;17.70;;;14.40;;
4533;SDS011;2279;51.448;7.306;2022-11-14T02:17:16;15.30;;;13.23;;
4533;SDS011;2279;51.448;7.306;2022-11-14T02:19:44;17.25;;;14.23;;
4533;SDS011;2279;51.448;7.306;2022-11-14T02:22:10;16.00;;;13.57;;
4533;SDS011;2279;51.448;7.306;2022-11-14T02:24:36;14.47;;;12.70;;
4533;SDS011;2279;51.448;7.306;2022-11-14T02:27:03;15.45;;;11.55;;
4533;SDS011;2279;51.448;7.306;2022-11-14T02:29:30;14.50;;;12.02;;
4533;SDS011;2279;51.448;7.306;2022-11-14T02:31:57;35.05;;;18.70;;
4533;SDS011;2279;51.448;7.306;2022-11-14T02:34:23;21.38;;;14.88;;
4533;SDS011;2279;51.448;7.306;2022-11-14T02:36:49;19.58;;;13.88;;
4533;SDS011;2279;51.448;7.306;2022-11-14T02:39:15;13.38;;;11.70;;
4533;SDS011;2279;51.448;7.306;2022-11-14T02:41:41;18.40;;;14.23;;
4533;SDS011;2279;51.448;7.306;2022-11-14T02:44:07;16.50;;;14.00;;
4533;SDS011;2279;51.448;7.306;2022-11-14T02:46:33;16.43;;;12.73;;
4533;SDS011;2279;51.448;7.306;2022-11-14T02:48:59;17.10;;;13.03;;
4533;SDS011;2279;51.448;7.306;2022-11-14T02:51:25;18.10;;;13.20;;
4533;SDS011;2279;51.448;7.306;2022-11-14T02:53:51;15.83;;;12.23;;
4533;SDS011;2279;51.448;7.306;2022-11-14T02:56:17;20.10;;;14.63;;
4533;SDS011;2279;51.448;7.306;2022-11-14T02:58:43;20.07;;;12.83;;
4533;SDS011;2279;51.448;7.306;2022-11-14T03:01:10;13.32;;;11.93;;
4533;SDS011;2279;51.448;7.306;2022-11-14T03:03:36;17.55;;;12.15;;
4533;SDS011;2279;51.448;7.306;2022-11-14T03:06:03;15.10;;;12.50;;
4533;SDS011;2279;51.448;7.306;2022-11-14T03:08:29;16.42;;;12.25;;
4533;SDS011;2279;51.448;7.306;2022-11-14T03:10:55;14.27;;;12.30;;
4533;SDS011;2279;51.448;7.306;2022-11-14T03:13:28;17.10;;;12.95;;
4533;SDS011;2279;51.448;7.306;2022-11-14T03:15:54;13.98;;;11.85;;
4533;SDS011;2279;51.448;7.306;2022-11-14T03:18:20;13.70;;;12.00;;
4533;SDS011;2279;51.448;7.306;2022-11-14T03:20:46;14.35;;;12.95;;
4533;SDS011;2279;51.448;7.306;2022-11-14T03:23:13;13.35;;;11.45;;
4533;SDS011;2279;51.448;7.306;2022-11-14T03:25:39;13.60;;;10.60;;
4533;SDS011;2279;51.448;7.306;2022-11-14T03:28:05;14.90;;;13.07;;
4533;SDS011;2279;51.448;7.306;2022-11-14T03:30:31;18.00;;;12.70;;
4533;SDS011;2279;51.448;7.306;2022-11-14T03:32:57;14.80;;;11.98;;
4533;SDS011;2279;51.448;7.306;2022-11-14T03:35:23;16.57;;;12.10;;
4533;SDS011;2279;51.448;7.306;2022-11-14T03:37:49;14.05;;;11.68;;
4533;SDS011;2279;51.448;7.306;2022-11-14T03:40:15;14.13;;;11.23;;
4533;SDS011;2279;51.448;7.306;2022-11-14T03:42:41;15.57;;;11.48;;
4533;SDS011;2279;51.448;7.306;2022-11-14T03:45:08;19.60;;;12.53;;
4533;SDS011;2279;51.448;7.306;2022-11-14T03:47:34;16.48;;;12.25;;
4533;SDS011;2279;51.448;7.306;2022-11-14T03:50:00;18.50;;;12.40;;
4533;SDS011;2279;51.448;7.306;2022-11-14T03:52:26;14.13;;;11.93;;
4533;SDS011;2279;51.448;7.306;2022-11-14T03:54:52;12.83;;;10.43;;
4533;SDS011;2279;51.448;7.306;2022-11-14T03:57:18;18.67;;;11.82;;
4533;SDS011;2279;51.448;7.306;2022-11-14T03:59:44;16.60;;;11.88;;
4533;SDS011;2279;51.448;7.306;2022-11-14T04:02:11;14.85;;;10.35;;
4533;SDS011;2279;51.448;7.306;2022-11-14T04:04:37;15.40;;;10.00;;
4533;SDS011;2279;51.448;7.306;2022-11-14T04:07:03;12.77;;;10.60;;
4533;SDS011;2279;51.448;7.306;2022-11-14T04:09:30;14.95;;;11.60;;
4533;SDS011;2279;51.448;7.306;2022-11-14T04:11:56;15.30;;;10.40;;
4533;SDS011;2279;51.448;7.306;2022-11-14T04:14:22;13.98;;;10.43;;
4533;SDS011;2279;51.448;7.306;2022-11-14T04:16:48;12.27;;;10.40;;
4533;SDS011;2279;51.448;7.306;2022-11-14T04:19:14;12.90;;;10.47;;
4533;SDS011;2279;51.448;7.306;2022-11-14T04:21:40;14.43;;;10.90;;
4533;SDS011;2279;51.448;7.306;2022-11-14T04:24:06;13.17;;;10.90;;
4533;SDS011;2279;51.448;7.306;2022-11-14T04:26:32;14.57;;;9.25;;
4533;SDS011;2279;51.448;7.306;2022-11-14T04:28:58;12.47;;;9.87;;
4533;SDS011;2279;51.448;7.306;2022-11-14T04:31:24;12.65;;;10.48;;
4533;SDS011;2279;51.448;7.306;2022-11-14T04:33:50;17.33;;;10.90;;
4533;SDS011;2279;51.448;7.306;2022-11-14T04:36:16;14.88;;;10.55;;
4533;SDS011;2279;51.448;7.306;2022-11-14T04:38:42;13.73;;;10.75;;
4533;SDS011;2279;51.448;7.306;2022-11-14T04:41:08;12.63;;;9.80;;
4533;SDS011;2279;51.448;7.306;2022-11-14T04:43:34;13.63;;;11.00;;
4533;SDS011;2279;51.448;7.306;2022-11-14T04:46:00;17.30;;;10.88;;
4533;SDS011;2279;51.448;7.306;2022-11-14T04:48:26;22.37;;;11.17;;
4533;SDS011;2279;51.448;7.306;2022-11-14T04:50:52;14.43;;;11.27;;
4533;SDS011;2279;51.448;7.306;2022-11-14T04:53:18;12.90;;;10.43;;
4533;SDS011;2279;51.448;7.306;2022-11-14T04:55:44;14.52;;;11.45;;
4533;SDS011;2279;51.448;7.306;2022-11-14T04:58:10;17.17;;;11.60;;
4533;SDS011;2279;51.448;7.306;2022-11-14T05:00:37;15.35;;;10.98;;
4533;SDS011;2279;51.448;7.306;2022-11-14T05:03:04;17.08;;;11.75;;
4533;SDS011;2279;51.448;7.306;2022-11-14T05:05:30;10.77;;;7.85;;
4533;SDS011;2279;51.448;7.306;2022-11-14T05:07:56;11.90;;;8.50;;
4533;SDS011;2279;51.448;7.306;2022-11-14T05:10:23;11.90;;;7.78;;
4533;SDS011;2279;51.448;7.306;2022-11-14T05:12:51;8.75;;;7.78;;
4533;SDS011;2279;51.448;7.306;2022-11-14T05:15:17;12.10;;;8.48;;
4533;SDS011;2279;51.448;7.306;2022-11-14T05:17:43;12.67;;;9.83;;
4533;SDS011;2279;51.448;7.306;2022-11-14T05:20:10;15.35;;;9.80;;
4533;SDS011;2279;51.448;7.306;2022-11-14T05:22:36;14.13;;;10.82;;
4533;SDS011;2279;51.448;7.306;2022-11-14T05:25:02;10.48;;;9.38;;
4533;SDS011;2279;51.448;7.306;2022-11-14T05:27:28;12.20;;;9.90;;
4533;SDS011;2279;51.448;7.306;2022-11-14T05:29:54;13.02;;;9.05;;
4533;SDS011;2279;51.448;7.306;2022-11-14T05:32:20;12.15;;;9.23;;
4533;SDS011;2279;51.448;7.306;2022-11-14T05:34:46;11.50;;;9.55;;
4533;SDS011;2279;51.448;7.306;2022-11-14T05:37:13;13.43;;;9.52;;
4533;SDS011;2279;51.448;7.306;2022-11-14T05:39:39;12.40;;;9.48;;
4533;SDS011;2279;51.448;7.306;2022-11-14T05:42:04;12.40;;;9.30;;
4533;SDS011;2279;51.448;7.306;2022-11-14T05:44:31;20.60;;;10.97;;
4533;SDS011;2279;51.448;7.306;2022-11-14T05:46:57;14.27;;;10.18;;
4533;SDS011;2279;51.448;7.306;2022-11-14T05:49:23;12.07;;;10.77;;
4533;SDS011;2279;51.448;7.306;2022-11-14T05:51:49;14.10;;;10.13;;
4533;SDS011;2279;51.448;7.306;2022-11-14T05:54:15;17.42;;;11.77;;
4533;SDS011;2279;51.448;7.306;2022-11-14T05:56:41;22.40;;;11.97;;
4533;SDS011;2279;51.448;7.306;2022-11-14T05:59:07;13.73;;;11.20;;
4533;SDS011;2279;51.448;7.306;2022-11-14T06:01:33;19.05;;;14.55;;
4533;SDS011;2279;51.448;7.306;2022-11-14T06:03:59;25.38;;;13.85;;
4533;SDS011;2279;51.448;7.306;2022-11-14T06:06:25;17.53;;;12.83;;
4533;SDS011;2279;51.448;7.306;2022-11-14T06:08:51;17.85;;;10.75;;
4533;SDS011;2279;51.448;7.306;2022-11-14T06:11:18;15.73;;;9.40;;
4533;SDS011;2279;51.448;7.306;2022-11-14T06:13:44;15.00;;;10.25;;
4533;SDS011;2279;51.448;7.306;2022-11-14T06:16:11;13.75;;;9.73;;
4533;SDS011;2279;51.448;7.306;2022-11-14T06:18:38;13.27;;;8.38;;
4533;SDS011;2279;51.448;7.306;2022-11-14T06:21:05;10.35;;;7.32;;
4533;SDS011;2279;51.448;7.306;2022-11-14T06:23:31;10.48;;;8.18;;
4533;SDS011;2279;51.448;7.306;2022-11-14T06:26:02;9.48;;;7.78;;
4533;SDS011;2279;51.448;7.306;2022-11-14T06:28:28;11.52;;;7.20;;
4533;SDS011;2279;51.448;7.306;2022-11-14T06:31:01;10.02;;;6.65;;
4533;SDS011;2279;51.448;7.306;2022-11-14T06:33:28;10.52;;;8.60;;
4533;SDS011;2279;51.448;7.306;2022-11-14T06:35:57;8.05;;;7.13;;
4533;SDS011;2279;51.448;7.306;2022-11-14T06:38:23;10.30;;;8.13;;
4533;SDS011;2279;51.448;7.306;2022-11-14T06:40:49;11.88;;;8.25;;
4533;SDS011;2279;51.448;7.306;2022-11-14T06:43:15;12.85;;;8.95;;
4533;SDS011;2279;51.448;7.306;2022-11-14T06:45:42;17.17;;;11.75;;
4533;SDS011;2279;51.448;7.306;2022-11-14T06:48:08;18.50;;;11.05;;
4533;SDS011;2279;51.448;7.306;2022-11-14T06:50:34;48.43;;;24.73;;
4533;SDS011;2279;51.448;7.306;2022-11-14T06:53:00;35.77;;;18.63;;
4533;SDS011;2279;51.448;7.306;2022-11-14T06:55:25;33.67;;;18.27;;
4533;SDS011;2279;51.448;7.306;2022-11-14T06:57:52;24.17;;;14.97;;
4533;SDS011;2279;51.448;7.306;2022-11-14T07:00:19;32.22;;;14.95;;
4533;SDS011;2279;51.448;7.306;2022-11-14T07:02:45;32.42;;;15.80;;
4533;SDS011;2279;51.448;7.306;2022-11-14T07:05:11;25.83;;;14.82;;
4533;SDS011;2279;51.448;7.306;2022-11-14T07:07:37;27.40;;;14.50;;
4533;SDS011;2279;51.448;7.306;2022-11-14T07:10:03;29.07;;;13.80;;
4533;SDS011;2279;51.448;7.306;2022-11-14T07:12:29;24.90;;;12.30;;
4533;SDS011;2279;51.448;7.306;2022-11-14T07:14:56;18.40;;;10.48;;
4533;SDS011;2279;51.448;7.306;2022-11-14T07:17:22;14.73;;;8.75;;
4533;SDS011;2279;51.448;7.306;2022-11-14T07:19:48;13.90;;;9.70;;
4533;SDS011;2279;51.448;7.306;2022-11-14T07:22:14;13.40;;;10.07;;
4533;SDS011;2279;51.448;7.306;2022-11-14T07:24:40;9.43;;;7.95;;
4533;SDS011;2279;51.448;7.306;2022-11-14T07:27:06;12.37;;;9.00;;
4533;SDS011;2279;51.448;7.306;2022-11-14T07:29:36;10.13;;;7.75;;
4533;SDS011;2279;51.448;7.306;2022-11-14T07:32:02;13.48;;;7.90;;
4533;SDS011;2279;51.448;7.306;2022-11-14T07:34:28;13.85;;;8.25;;
4533;SDS011;2279;51.448;7.306;2022-11-14T07:36:54;10.25;;;7.95;;
4533;SDS011;2279;51.448;7.306;2022-11-14T07:39:20;9.35;;;8.23;;
4533;SDS011;2279;51.448;7.306;2022-11-14T07:41:46;13.53;;;9.73;;
4533;SDS011;2279;51.448;7.306;2022-11-14T07:44:12;15.50;;;8.80;;
4533;SDS011;2279;51.448;7.306;2022-11-14T07:46:38;9.50;;;8.27;;
4533;SDS011;2279;51.448;7.306;2022-11-14T07:49:04;14.15;;;8.88;;
4533;SDS011;2279;51.448;7.306;2022-11-14T07:51:30;12.80;;;8.25;;
4533;SDS011;2279;51.448;7.306;2022-11-14T07:53:56;12.70;;;8.47;;
4533;SDS011;2279;51.448;7.306;2022-11-14T07:56:22;17.73;;;9.20;;
4533;SDS011;2279;51.448;7.306;2022-11-14T07:58:50;16.10;;;9.65;;
4533;SDS011;2279;51.448;7.306;2022-11-14T08:01:16;21.35;;;11.43;;
4533;SDS011;2279;51.448;7.306;2022-11-14T08:03:42;20.80;;;12.47;;
4533;SDS011;2279;51.448;7.306;2022-11-14T08:06:12;18.48;;;12.23;;
4533;SDS011;2279;51.448;7.306;2022-11-14T08:08:38;16.98;;;12.45;;
4533;SDS011;2279;51.448;7.306;2022-11-14T08:11:04;17.05;;;10.95;;
4533;SDS011;2279;51.448;7.306;2022-11-14T08:13:30;16.05;;;10.15;;
4533;SDS011;2279;51.448;7.306;2022-11-14T08:15:56;18.63;;;10.30;;
4533;SDS011;2279;51.448;7.306;2022-11-14T08:18:24;15.55;;;9.45;;
4533;SDS011;2279;51.448;7.306;2022-11-14T08:20:50;12.43;;;10.37;;
4533;SDS011;2279;51.448;7.306;2022-11-14T08:23:16;20.37;;;11.67;;
4533;SDS011;2279;51.448;7.306;2022-11-14T08:25:42;21.53;;;10.30;;
4533;SDS011;2279;51.448;7.306;2022-11-14T08:28:08;21.27;;;11.37;;
4533;SDS011;2279;51.448;7.306;2022-11-14T08:30:34;44.07;;;18.73;;
4533;SDS011;2279;51.448;7.306;2022-11-14T08:33:01;36.00;;;16.30;;
4533;SDS011;2279;51.448;7.306;2022-11-14T08:35:27;23.87;;;13.30;;
4533;SDS011;2279;51.448;7.306;2022-11-14T08:37:53;21.50;;;11.17;;
4533;SDS011;2279;51.448;7.306;2022-11-14T08:40:19;20.20;;;12.20;;
4533;SDS011;2279;51.448;7.306;2022-11-14T08:42:45;24.47;;;14.63;;
4533;SDS011;2279;51.448;7.306;2022-11-14T08:45:11;26.63;;;12.70;;
4533;SDS011;2279;51.448;7.306;2022-11-14T08:47:37;19.13;;;10.63;;
4533;SDS011;2279;51.448;7.306;2022-11-14T08:50:03;22.47;;;11.77;;
4533;SDS011;2279;51.448;7.306;2022-11-14T08:52:29;19.23;;;11.10;;
4533;SDS011;2279;51.448;7.306;2022-11-14T08:54:55;26.30;;;12.70;;
4533;SDS011;2279;51.448;7.306;2022-11-14T08:57:21;24.53;;;11.93;;
4533;SDS011;2279;51.448;7.306;2022-11-14T08:59:47;17.73;;;11.57;;
4533;SDS011;2279;51.448;7.306;2022-11-14T09:02:13;16.53;;;11.70;;
4533;SDS011;2279;51.448;7.306;2022-11-14T09:04:39;24.50;;;12.53;;
4533;SDS011;2279;51.448;7.306;2022-11-14T09:07:06;19.73;;;10.90;;
4533;SDS011;2279;51.448;7.306;2022-11-14T09:09:32;13.63;;;10.70;;
4533;SDS011;2279;51.448;7.306;2022-11-14T09:11:57;15.07;;;11.57;;
4533;SDS011;2279;51.448;7.306;2022-11-14T09:14:23;14.97;;;10.80;;
4533;SDS011;2279;51.448;7.306;2022-11-14T09:16:49;19.23;;;12.50;;
4533;SDS011;2279;51.448;7.306;2022-11-14T09:19:15;21.30;;;12.40;;
4533;SDS011;2279;51.448;7.306;2022-11-14T09:21:41;24.60;;;13.00;;
4533;SDS011;2279;51.448;7.306;2022-11-14T09:24:08;25.20;;;13.60;;
4533;SDS011;2279;51.448;7.306;2022-11-14T09:26:34;28.70;;;14.53;;
4533;SDS011;2279;51.448;7.306;2022-11-14T09:29:00;35.30;;;14.97;;
4533;SDS011;2279;51.448;7.306;2022-11-14T09:31:26;28.00;;;15.10;;
4533;SDS011;2279;51.448;7.306;2022-11-14T09:33:52;23.10;;;14.67;;
4533;SDS011;2279;51.448;7.306;2022-11-14T09:36:18;22.63;;;13.60;;
4533;SDS011;2279;51.448;7.306;2022-11-14T09:38:44;28.30;;;15.17;;
4533;SDS011;2279;51.448;7.306;2022-11-14T09:41:24;19.90;;;12.80;;
4533;SDS011;2279;51.448;7.306;2022-11-14T09:49:19;22.67;;;14.03;;
4533;SDS011;2279;51.448;7.306;2022-11-14T09:51:49;20.53;;;12.60;;
4533;SDS011;2279;51.448;7.306;2022-11-14T09:56:43;23.83;;;15.60;;
4533;SDS011;2279;51.448;7.306;2022-11-14T09:59:09;23.67;;;15.27;;
4533;SDS011;2279;51.448;7.306;2022-11-14T10:11:51;21.83;;;13.80;;
4533;SDS011;2279;51.448;7.306;2022-11-14T10:16:50;22.20;;;14.33;;
4533;SDS011;2279;51.448;7.306;2022-11-14T10:19:33;20.80;;;13.87;;
4533;SDS011;2279;51.448;7.306;2022-11-14T10:27:22;20.80;;;13.37;;
4533;SDS011;2279;51.448;7.306;2022-11-14T10:29:53;20.40;;;13.30;;
4533;SDS011;2279;51.448;7.306;2022-11-14T10:34:53;18.17;;;12.80;;
4533;SDS011;2279;51.448;7.306;2022-11-14T10:37:22;18.60;;;12.07;;
4533;SDS011;2279;51.448;7.306;2022-11-14T10:39:51;16.87;;;11.80;;
4533;SDS011;2279;51.448;7.306;2022-11-14T10:42:22;16.00;;;12.13;;
4533;SDS011;2279;51.448;7.306;2022-11-14T10:44:50;16.83;;;12.00;;
4533;SDS011;2279;51.448;7.306;2022-11-14T10:47:19;17.80;;;12.50;;
4533;SDS011;2279;51.448;7.306;2022-11-14T10:49:46;18.40;;;11.80;;
4533;SDS011;2279;51.448;7.306;2022-11-14T10:52:15;21.13;;;13.63;;
4533;SDS011;2279;51.448;7.306;2022-11-14T10:54:44;16.60;;;12.30;;
4533;SDS011;2279;51.448;7.306;2022-11-14T10:57:12;15.97;;;11.80;;
4533;SDS011;2279;51.448;7.306;2022-11-14T10:59:39;19.03;;;12.37;;
4533;SDS011;2279;51.448;7.306;2022-11-14T11:02:07;15.73;;;11.20;;
4533;SDS011;2279;51.448;7.306;2022-11-14T11:04:33;21.67;;;13.27;;
4533;SDS011;2279;51.448;7.306;2022-11-14T11:09:33;14.80;;;12.30;;
4533;SDS011;2279;51.448;7.306;2022-11-14T11:12:20;15.77;;;11.20;;
4533;SDS011;2279;51.448;7.306;2022-11-14T11:14:48;18.53;;;12.40;;
4533;SDS011;2279;51.448;7.306;2022-11-14T11:17:15;15.97;;;11.17;;
4533;SDS011;2279;51.448;7.306;2022-11-14T11:19:43;17.73;;;11.67;;
4533;SDS011;2279;51.448;7.306;2022-11-14T11:24:53;15.83;;;10.20;;
4533;SDS011;2279;51.448;7.306;2022-11-14T11:27:23;15.30;;;11.30;;
4533;SDS011;2279;51.448;7.306;2022-11-14T11:32:27;14.43;;;10.07;;
4533;SDS011;2279;51.448;7.306;2022-11-14T11:34:54;15.47;;;10.87;;
4533;SDS011;2279;51.448;7.306;2022-11-14T11:37:22;16.40;;;10.87;;
4533;SDS011;2279;51.448;7.306;2022-11-14T11:39:53;14.23;;;9.97;;
4533;SDS011;2279;51.448;7.306;2022-11-14T11:45:18;15.50;;;11.03;;
4533;SDS011;2279;51.448;7.306;2022-11-14T11:47:55;17.13;;;10.43;;
4533;SDS011;2279;51.448;7.306;2022-11-14T11:50:22;15.00;;;10.20;;
4533;SDS011;2279;51.448;7.306;2022-11-14T11:53:11;12.40;;;9.13;;
4533;SDS011;2279;51.448;7.306;2022-11-14T11:55:43;10.70;;;9.10;;
4533;SDS011;2279;51.448;7.306;2022-11-14T11:58:26;11.43;;;8.87;;
4533;SDS011;2279;51.448;7.306;2022-11-14T12:00:55;15.23;;;9.60;;
4533;SDS011;2279;51.448;7.306;2022-11-14T12:03:21;10.97;;;8.97;;
4533;SDS011;2279;51.448;7.306;2022-11-14T12:05:54;13.57;;;10.60;;
4533;SDS011;2279;51.448;7.306;2022-11-14T12:08:25;12.13;;;8.83;;
4533;SDS011;2279;51.448;7.306;2022-11-14T12:10:54;12.77;;;9.37;;
4533;SDS011;2279;51.448;7.306;2022-11-14T12:18:50;11.83;;;8.83;;
4533;SDS011;2279;51.448;7.306;2022-11-14T12:31:14;9.47;;;7.60;;
4533;SDS011;2279;51.448;7.306;2022-11-14T12:33:48;10.03;;;7.73;;
4533;SDS011;2279;51.448;7.306;2022-11-14T12:36:16;16.10;;;8.40;;
4533;SDS011;2279;51.448;7.306;2022-11-14T12:38:46;10.93;;;8.30;;
4533;SDS011;2279;51.448;7.306;2022-11-14T12:41:18;12.60;;;8.80;;
4533;SDS011;2279;51.448;7.306;2022-11-14T12:43:45;9.07;;;7.47;;
4533;SDS011;2279;51.448;7.306;2022-11-14T12:46:12;13.40;;;7.83;;
4533;SDS011;2279;51.448;7.306;2022-11-14T12:48:38;11.10;;;7.90;;
4533;SDS011;2279;51.448;7.306;2022-11-14T12:53:50;9.67;;;7.97;;
4533;SDS011;2279;51.448;7.306;2022-11-14T13:11:50;11.20;;;8.13;;
4533;SDS011;2279;51.448;7.306;2022-11-14T13:14:48;11.70;;;8.67;;
4533;SDS011;2279;51.448;7.306;2022-11-14T13:17:33;10.33;;;8.03;;
4533;SDS011;2279;51.448;7.306;2022-11-14T13:20:31;11.43;;;8.37;;
4533;SDS011;2279;51.448;7.306;2022-11-14T13:31:04;11.63;;;9.53;;
4533;SDS011;2279;51.448;7.306;2022-11-14T13:33:40;11.77;;;9.17;;
4533;SDS011;2279;51.448;7.306;2022-11-14T13:36:08;15.93;;;8.40;;
4533;SDS011;2279;51.448;7.306;2022-11-14T13:43:57;13.10;;;8.77;;
4533;SDS011;2279;51.448;7.306;2022-11-14T13:51:36;13.10;;;8.90;;
4533;SDS011;2279;51.448;7.306;2022-11-14T13:54:09;14.77;;;9.20;;
4533;SDS011;2279;51.448;7.306;2022-11-14T13:56:49;13.93;;;9.57;;
4533;SDS011;2279;51.448;7.306;2022-11-14T13:59:20;12.57;;;9.77;;
4533;SDS011;2279;51.448;7.306;2022-11-14T14:07:29;15.47;;;9.20;;
4533;SDS011;2279;51.448;7.306;2022-11-14T14:10:05;19.97;;;10.57;;
4533;SDS011;2279;51.448;7.306;2022-11-14T14:12:47;13.80;;;9.73;;
4533;SDS011;2279;51.448;7.306;2022-11-14T14:17:48;15.03;;;10.93;;
4533;SDS011;2279;51.448;7.306;2022-11-14T14:20:18;18.90;;;10.23;;
4533;SDS011;2279;51.448;7.306;2022-11-14T14:25:14;14.63;;;9.87;;
4533;SDS011;2279;51.448;7.306;2022-11-14T14:30:15;11.70;;;9.63;;
4533;SDS011;2279;51.448;7.306;2022-11-14T14:32:42;13.00;;;10.30;;
4533;SDS011;2279;51.448;7.306;2022-11-14T14:35:21;14.23;;;10.20;;
4533;SDS011;2279;51.448;7.306;2022-11-14T14:37:51;16.43;;;10.60;;
4533;SDS011;2279;51.448;7.306;2022-11-14T14:42:49;12.67;;;8.90;;
4533;SDS011;2279;51.448;7.306;2022-11-14T14:45:17;11.13;;;9.03;;
4533;SDS011;2279;51.448;7.306;2022-11-14T14:47:44;12.17;;;9.57;;
4533;SDS011;2279;51.448;7.306;2022-11-14T14:50:34;13.23;;;9.93;;
4533;SDS011;2279;51.448;7.306;2022-11-14T14:53:01;14.47;;;10.43;;
4533;SDS011;2279;51.448;7.306;2022-11-14T14:55:36;13.40;;;10.13;;
4533;SDS011;2279;51.448;7.306;2022-11-14T15:03:25;16.53;;;10.97;;
4533;SDS011;2279;51.448;7.306;2022-11-14T15:05:59;15.20;;;10.07;;
4533;SDS011;2279;51.448;7.306;2022-11-14T15:08:25;16.00;;;10.80;;
4533;SDS011;2279;51.448;7.306;2022-11-14T15:10:52;16.50;;;10.63;;
4533;SDS011;2279;51.448;7.306;2022-11-14T15:13:20;14.77;;;10.23;;
4533;SDS011;2279;51.448;7.306;2022-11-14T15:15:48;14.80;;;10.57;;
4533;SDS011;2279;51.448;7.306;2022-11-14T15:18:25;16.83;;;11.70;;
4533;SDS011;2279;51.448;7.306;2022-11-14T15:23:33;15.00;;;9.80;;
4533;SDS011;2279;51.448;7.306;2022-11-14T15:26:01;15.03;;;10.30;;
4533;SDS011;2279;51.448;7.306;2022-11-14T15:28:27;13.83;;;10.80;;
4533;SDS011;2279;51.448;7.306;2022-11-14T15:30:58;16.17;;;11.13;;
4533;SDS011;2279;51.448;7.306;2022-11-14T15:33:25;12.27;;;9.60;;
4533;SDS011;2279;51.448;7.306;2022-11-14T15:36:11;15.57;;;11.23;;
4533;SDS011;2279;51.448;7.306;2022-11-14T15:38:38;14.13;;;11.10;;
4533;SDS011;2279;51.448;7.306;2022-11-14T15:41:08;15.17;;;10.47;;
4533;SDS011;2279;51.448;7.306;2022-11-14T15:48:50;14.10;;;10.30;;
4533;SDS011;2279;51.448;7.306;2022-11-14T15:51:16;16.80;;;10.43;;
4533;SDS011;2279;51.448;7.306;2022-11-14T15:53:46;15.77;;;10.70;;
4533;SDS011;2279;51.448;7.306;2022-11-14T15:56:12;15.07;;;10.47;;
4533;SDS011;2279;51.448;7.306;2022-11-14T15:58:39;17.03;;;11.10;;
4533;SDS011;2279;51.448;7.306;2022-11-14T16:01:05;16.40;;;10.80;;
4533;SDS011;2279;51.448;7.306;2022-11-14T16:03:35;13.50;;;10.93;;
4533;SDS011;2279;51.448;7.306;2022-11-14T16:06:01;11.90;;;10.40;;
4533;SDS011;2279;51.448;7.306;2022-11-14T16:08:27;15.23;;;10.40;;
4533;SDS011;2279;51.448;7.306;2022-11-14T16:10:53;17.20;;;11.57;;
4533;SDS011;2279;51.448;7.306;2022-11-14T16:13:19;14.30;;;9.93;;
4533;SDS011;2279;51.448;7.306;2022-11-14T16:15:45;14.37;;;11.13;;
4533;SDS011;2279;51.448;7.306;2022-11-14T16:18:11;14.97;;;10.40;;
4533;SDS011;2279;51.448;7.306;2022-11-14T16:20:37;18.20;;;10.50;;
4533;SDS011;2279;51.448;7.306;2022-11-14T16:23:05;13.70;;;10.43;;
4533;SDS011;2279;51.448;7.306;2022-11-14T16:25:34;17.90;;;10.63;;
4533;SDS011;2279;51.448;7.306;2022-11-14T16:28:00;14.30;;;10.00;;
4533;SDS011;2279;51.448;7.306;2022-11-14T16:30:26;15.10;;;11.57;;
4533;SDS011;2279;51.448;7.306;2022-11-14T16:32:52;15.07;;;10.43;;
4533;SDS011;2279;51.448;7.306;2022-11-14T16:35:19;16.83;;;11.10;;
4533;SDS011;2279;51.448;7.306;2022-11-14T16:37:46;15.30;;;10.90;;
4533;SDS011;2279;51.448;7.306;2022-11-14T16:40:13;14.33;;;10.97;;
4533;SDS011;2279;51.448;7.306;2022-11-14T16:42:40;17.10;;;11.43;;
4533;SDS011;2279;51.448;7.306;2022-11-14T16:45:06;19.20;;;12.43;;
4533;SDS011;2279;51.448;7.306;2022-11-14T16:47:32;15.63;;;10.53;;
4533;SDS011;2279;51.448;7.306;2022-11-14T16:49:58;13.13;;;10.60;;
4533;SDS011;2279;51.448;7.306;2022-11-14T16:52:25;14.03;;;11.10;;
4533;SDS011;2279;51.448;7.306;2022-11-14T16:54:51;16.40;;;11.70;;